Worthington, MN

1:58 PM CDT on July 24, 2014 (GMT -0500)
Worthington Municipal (KOTG) Elev 1575 ft | 43.66 °N, 95.58 °W | Change Station

Current weather conditions updated 3 minutes ago

Clear
Clear
68 °F
Feels Like 68 °F
N
15
Wind Variable Wind from SSW
Gusts 23 mph

Today is forecast to be nearly the same temperature as yesterday. Cloudy with showers and thunderstorms.

Today
High -- | Low -- °F
--% Chance of Precip.
Yesterday
High -- | Low -- °F
Precip. -- in
6:03 AM 8:53 PM
Waning Crescent, 4% visible
Pressure 30.00 in
Visibility 10.0 miles
Clouds Clear
Dew Point 61 °F
Humidity 78%
Rainfall 0.00 in
Snow Depth Not available.
UV 11 out of 12
Pollen 5.70 out of 12
Air Quality Not available.
Flu Activity Not available.
METAR KOTG 241855Z AUTO 20013G20KT 10SM CLR 20/16 A3000 RMK AO1 LTG DSNT SW

More Conditions Fewer Conditions

Pressure 30.00 in
Visibility 10.0 miles
Clouds Clear
Dew Point 61 °F
Humidity 78%
Rainfall 0.00 in
Snow Depth Not available.
UV 11 out of 12
Pollen 5.70 out of 12
Air Quality Not available.
Flu Activity Not available.
METAR KOTG 241855Z AUTO 20013G20KT 10SM CLR 20/16 A3000 RMK AO1 LTG DSNT SW

More Conditions Fewer Conditions

10-Day Weather Forecast

Almanac

Astronomy

Jul. 24, 2014 Rise Set
Actual Time 6:03 AM CDT 8:53 PM CDT
Civil Twilight 5:29 AM CDT 9:27 PM CDT
Nautical Twilight 4:47 AM CDT 10:09 PM CDT
Astronomical Twilight 3:57 AM CDT 10:59 PM CDT
Moon 4:12 AM CDT 7:08 PM CDT
Length of Visible Light 15h 57m
Length of Day
14h 50m
Tomorrow will be 2m 0s shorter.
Waning Crescent, 4% of the Moon is Illuminated
Today
Waning Crescent
Jul 26
New
Aug 3
First Quarter
Aug 10
Full
Aug 17
Last Quarter

Today's Extremes

State Highs State Lows

Community

WunderPhotos

Upload Photos

1,737,091 photos uploaded!

Nearby

Snow Depth

Station Depth Elevation
No new snow has been reported.

Earthquake Activity

City Distance Mag. Time & Date
No recent earthquake activity has been reported nearby.
Minimum magnitude displayed is 2.5.

Coastal Water Temperatures

Place Temperature
No Stations Reporting

Nearby Weather Stations

Station Location Temp. Heat Index Dew Point Humidity Wind Precip. Elev Updated Type
MesoWest WORTHI , Worthington, MN 73 °F 71 °F - - North  at  - 0.00 in / hr 1556 ft 11:35 AM CDT MADIS
Round Lake, Round Lake, MN 68.3 °F - 62 °F 80% ENE  at  14.0 mph 0.03 in / hr 1535 ft 1:51 PM CDT Normal
Dugout Creek, Lake Park, IA 68.9 °F - 50 °F 52% South  at  13.8 mph 0.02 in / hr 1444 ft 1:58 PM CDT Rapid Fire
Chandler, MN 66.0 °F - 59 °F 79% South  at  16.0 mph 0.01 in / hr 1808 ft 1:54 PM CDT Normal

Show More Stations Show Fewer Stations